DLH12W EDDM-EYVI
Flight info
| Callsign | DLH12W |
|---|---|
| Flight time | 1h 40m |
| Altitude | 35000 |
| Route | AKINI1N AKINI Y104 MAMOR L132 AGNAV DCT SUPIL DCT KILNU DCT POZUM/N0437F310 DCT KELOD DCT GRUDA N858 BOKSU DCT IRKAL |
| Aircraft | A20N/M-SDE2E3FGHIRWXY/LB1 |
Departure
| Time | 2026-05-03 21:47 |
|---|---|
| Airport | Munich Airport (EDDM) |
Arrival
| Time | 2026-05-03 23:27 |
|---|---|
| Airport | Vilnius International Airport (EYVI) |
| Time | Latitude | Longitude | Altitude | Speed | Heading |
|---|---|---|---|---|---|
| 2026-05-03 20:58 | 48.35422 | 11.80035 | 1467 ft | 0 kts | 264° |
| 2026-05-03 21:37 | 48.35425 | 11.80067 | 1459 ft | 4 kts | 266° |
| 2026-05-03 21:37 | 48.35425 | 11.80107 | 1461 ft | 4 kts | 281° |
| 2026-05-03 21:37 | 48.35415 | 11.80140 | 1458 ft | 4 kts | 339° |
| 2026-05-03 21:37 | 48.35406 | 11.80144 | 1459 ft | 1 kts | 353° |
| 2026-05-03 21:40 | 48.35422 | 11.80141 | 1458 ft | 4 kts | 353° |
| 2026-05-03 21:40 | 48.35460 | 11.80133 | 1467 ft | 7 kts | 353° |
| 2026-05-03 21:40 | 48.35516 | 11.80123 | 1463 ft | 9 kts | 353° |
| 2026-05-03 21:40 | 48.35590 | 11.80110 | 1457 ft | 12 kts | 354° |
| 2026-05-03 21:41 | 48.35677 | 11.80084 | 1460 ft | 14 kts | 348° |
| 2026-05-03 21:41 | 48.35775 | 11.80060 | 1464 ft | 15 kts | 338° |
| 2026-05-03 21:41 | 48.35824 | 11.79924 | 1467 ft | 16 kts | 265° |
| 2026-05-03 21:41 | 48.35810 | 11.79746 | 1464 ft | 18 kts | 263° |
| 2026-05-03 21:42 | 48.35801 | 11.79556 | 1460 ft | 18 kts | 289° |
| 2026-05-03 21:42 | 48.35891 | 11.79516 | 1465 ft | 14 kts | 353° |
| 2026-05-03 21:42 | 48.35996 | 11.79498 | 1464 ft | 16 kts | 353° |
| 2026-05-03 21:42 | 48.36101 | 11.79515 | 1463 ft | 14 kts | 54° |
| 2026-05-03 21:43 | 48.36120 | 11.79671 | 1468 ft | 16 kts | 82° |
| 2026-05-03 21:43 | 48.36134 | 11.79851 | 1468 ft | 18 kts | 83° |
| 2026-05-03 21:43 | 48.36149 | 11.80051 | 1465 ft | 20 kts | 84° |
| 2026-05-03 21:43 | 48.36165 | 11.80272 | 1458 ft | 22 kts | 83° |
| 2026-05-03 21:44 | 48.36184 | 11.80511 | 1467 ft | 24 kts | 83° |
| 2026-05-03 21:44 | 48.36202 | 11.80766 | 1467 ft | 25 kts | 84° |
| 2026-05-03 21:44 | 48.36223 | 11.81033 | 1458 ft | 27 kts | 83° |
| 2026-05-03 21:44 | 48.36246 | 11.81316 | 1466 ft | 26 kts | 83° |
| 2026-05-03 21:45 | 48.36266 | 11.81586 | 1459 ft | 25 kts | 83° |
| 2026-05-03 21:45 | 48.36286 | 11.81837 | 1466 ft | 23 kts | 83° |
| 2026-05-03 21:45 | 48.36379 | 11.82007 | 1461 ft | 19 kts | 27° |
| 2026-05-03 21:45 | 48.36486 | 11.82006 | 1461 ft | 16 kts | 351° |
| 2026-05-03 21:46 | 48.36598 | 11.81982 | 1466 ft | 17 kts | 352° |
| 2026-05-03 21:46 | 48.36672 | 11.81876 | 1466 ft | 16 kts | 262° |
| 2026-05-03 21:46 | 48.36651 | 11.81628 | 1462 ft | 48 kts | 263° |
| 2026-05-03 21:46 | 48.36587 | 11.80783 | 1465 ft | 111 kts | 263° |
| 2026-05-03 21:47 | 48.36480 | 11.79363 | 1466 ft | 159 kts | 264° |
| 2026-05-03 21:47 | 48.36358 | 11.77696 | 1954 ft | 161 kts | 264° |
| 2026-05-03 21:47 | 48.36207 | 11.76024 | 2576 ft | 160 kts | 264° |
| 2026-05-03 21:47 | 48.36064 | 11.74387 | 3252 ft | 157 kts | 264° |
| 2026-05-03 21:48 | 48.35937 | 11.72666 | 3630 ft | 174 kts | 265° |
| 2026-05-03 21:48 | 48.35815 | 11.70750 | 3983 ft | 195 kts | 266° |
| 2026-05-03 21:48 | 48.35954 | 11.68631 | 4316 ft | 220 kts | 288° |
| 2026-05-03 21:48 | 48.36793 | 11.66610 | 4905 ft | 237 kts | 317° |
| 2026-05-03 21:49 | 48.38219 | 11.65389 | 5789 ft | 241 kts | 344° |
| 2026-05-03 21:49 | 48.39896 | 11.64855 | 6560 ft | 253 kts | 348° |
| 2026-05-03 21:49 | 48.41705 | 11.64327 | 7017 ft | 276 kts | 348° |
| 2026-05-03 21:49 | 48.43639 | 11.63769 | 7743 ft | 286 kts | 350° |
| 2026-05-03 21:50 | 48.45643 | 11.63719 | 8624 ft | 292 kts | 8° |
| 2026-05-03 21:50 | 48.47619 | 11.64591 | 9494 ft | 298 kts | 26° |
| 2026-05-03 21:50 | 48.49331 | 11.66325 | 10323 ft | 302 kts | 45° |
| 2026-05-03 21:50 | 48.50672 | 11.68770 | 11126 ft | 306 kts | 56° |
| 2026-05-03 21:51 | 48.51931 | 11.71404 | 11932 ft | 311 kts | 56° |
| 2026-05-03 21:51 | 48.53213 | 11.74066 | 12740 ft | 316 kts | 56° |
| 2026-05-03 21:51 | 48.54518 | 11.76770 | 13552 ft | 320 kts | 56° |
| 2026-05-03 21:51 | 48.55844 | 11.79515 | 14264 ft | 326 kts | 55° |
| 2026-05-03 21:52 | 48.57185 | 11.82291 | 15010 ft | 328 kts | 55° |
| 2026-05-03 21:52 | 48.58517 | 11.85051 | 15738 ft | 332 kts | 55° |
| 2026-05-03 21:52 | 48.59887 | 11.87894 | 16456 ft | 335 kts | 55° |
| 2026-05-03 21:52 | 48.61338 | 11.90681 | 17170 ft | 339 kts | 48° |
| 2026-05-03 21:53 | 48.62963 | 11.93296 | 17881 ft | 343 kts | 47° |
| 2026-05-03 21:53 | 48.64621 | 11.95926 | 18546 ft | 346 kts | 47° |
| 2026-05-03 21:53 | 48.66296 | 11.98578 | 19180 ft | 349 kts | 47° |
| 2026-05-03 21:53 | 48.67962 | 12.01223 | 19787 ft | 352 kts | 46° |
| 2026-05-03 21:54 | 48.69664 | 12.03934 | 20334 ft | 357 kts | 46° |
| 2026-05-03 21:54 | 48.71384 | 12.06679 | 20956 ft | 360 kts | 46° |
| 2026-05-03 21:54 | 48.73117 | 12.09447 | 21546 ft | 363 kts | 45° |
| 2026-05-03 21:54 | 48.75014 | 12.11984 | 22108 ft | 365 kts | 35° |
| 2026-05-03 21:55 | 48.77180 | 12.14020 | 22694 ft | 367 kts | 25° |
| 2026-05-03 21:55 | 48.79492 | 12.15669 | 23069 ft | 377 kts | 23° |
| 2026-05-03 21:55 | 48.81908 | 12.17395 | 23227 ft | 392 kts | 24° |
| 2026-05-03 21:55 | 48.84422 | 12.19207 | 23387 ft | 406 kts | 24° |
| 2026-05-03 21:56 | 48.87020 | 12.21084 | 23538 ft | 420 kts | 24° |
| 2026-05-03 21:56 | 48.89698 | 12.23021 | 23781 ft | 430 kts | 24° |
| 2026-05-03 21:56 | 48.92418 | 12.24947 | 24269 ft | 431 kts | 23° |
| 2026-05-03 21:56 | 48.95122 | 12.26844 | 24766 ft | 433 kts | 23° |
| 2026-05-03 21:57 | 48.97868 | 12.28770 | 25219 ft | 436 kts | 23° |
| 2026-05-03 21:57 | 49.00639 | 12.30718 | 25667 ft | 439 kts | 23° |
| 2026-05-03 21:57 | 49.03429 | 12.32685 | 26116 ft | 441 kts | 23° |
| 2026-05-03 21:57 | 49.06199 | 12.34642 | 26553 ft | 444 kts | 23° |
| 2026-05-03 21:58 | 49.09017 | 12.36636 | 26973 ft | 447 kts | 23° |
| 2026-05-03 21:58 | 49.11856 | 12.38648 | 27368 ft | 450 kts | 24° |
| 2026-05-03 21:58 | 49.14711 | 12.40674 | 27789 ft | 452 kts | 24° |
| 2026-05-03 21:58 | 49.17538 | 12.42683 | 28173 ft | 455 kts | 24° |
| 2026-05-03 21:59 | 49.20410 | 12.44726 | 28548 ft | 457 kts | 24° |
| 2026-05-03 21:59 | 49.23318 | 12.46798 | 28915 ft | 460 kts | 24° |
| 2026-05-03 21:59 | 49.26230 | 12.48875 | 29274 ft | 462 kts | 24° |
| 2026-05-03 21:59 | 49.29154 | 12.50964 | 29637 ft | 464 kts | 24° |
| 2026-05-03 22:00 | 49.32108 | 12.53008 | 29913 ft | 468 kts | 20° |
| 2026-05-03 22:00 | 49.35167 | 12.54554 | 30224 ft | 468 kts | 13° |
| 2026-05-03 22:00 | 49.38352 | 12.55606 | 30544 ft | 469 kts | 10° |
| 2026-05-03 22:00 | 49.41563 | 12.56608 | 30849 ft | 471 kts | 10° |
| 2026-05-03 22:01 | 49.44778 | 12.57630 | 31185 ft | 472 kts | 10° |
| 2026-05-03 22:01 | 49.47996 | 12.58655 | 31578 ft | 472 kts | 10° |
| 2026-05-03 22:01 | 49.51215 | 12.59678 | 31989 ft | 471 kts | 10° |
| 2026-05-03 22:01 | 49.54429 | 12.60696 | 32354 ft | 471 kts | 10° |
| 2026-05-03 22:02 | 49.57632 | 12.61708 | 32756 ft | 469 kts | 9° |
| 2026-05-03 22:02 | 49.60831 | 12.62571 | 33144 ft | 468 kts | 7° |
| 2026-05-03 22:02 | 49.64047 | 12.63322 | 33523 ft | 467 kts | 7° |
| 2026-05-03 22:02 | 49.67216 | 12.64046 | 33894 ft | 466 kts | 7° |
| 2026-05-03 22:03 | 49.70412 | 12.64791 | 34214 ft | 465 kts | 7° |
| 2026-05-03 22:03 | 49.73618 | 12.65557 | 34524 ft | 464 kts | 7° |
| 2026-05-03 22:03 | 49.75731 | 12.66068 | 34678 ft | 465 kts | 7° |
| 2026-05-03 22:03 | 49.78928 | 12.66848 | 34905 ft | 465 kts | 7° |
| 2026-05-03 22:04 | 49.85212 | 12.68391 | 34974 ft | 462 kts | 7° |
| 2026-05-03 22:04 | 49.92614 | 12.70215 | 34976 ft | 463 kts | 7° |
| 2026-05-03 22:05 | 49.97914 | 12.71524 | 34982 ft | 464 kts | 7° |
| 2026-05-03 22:05 | 50.04307 | 12.73106 | 34986 ft | 464 kts | 7° |
| 2026-05-03 22:06 | 50.10651 | 12.74680 | 34990 ft | 464 kts | 7° |
| 2026-05-03 22:06 | 50.17029 | 12.76267 | 34991 ft | 463 kts | 7° |
| 2026-05-03 22:07 | 50.23416 | 12.77862 | 34992 ft | 464 kts | 7° |
| 2026-05-03 22:07 | 50.29763 | 12.79449 | 34991 ft | 464 kts | 7° |
| 2026-05-03 22:08 | 50.36089 | 12.81445 | 34990 ft | 466 kts | 16° |
| 2026-05-03 22:08 | 50.41988 | 12.85778 | 34987 ft | 468 kts | 30° |
| 2026-05-03 22:09 | 50.47497 | 12.91160 | 34983 ft | 469 kts | 35° |
| 2026-05-03 22:10 | 50.54923 | 13.01154 | 34980 ft | 470 kts | 40° |
| 2026-05-03 22:10 | 50.59852 | 13.07946 | 34990 ft | 470 kts | 40° |
| 2026-05-03 22:11 | 50.64775 | 13.14770 | 34982 ft | 471 kts | 41° |
| 2026-05-03 22:11 | 50.69646 | 13.21547 | 34981 ft | 467 kts | 41° |
| 2026-05-03 22:12 | 50.74524 | 13.28356 | 34981 ft | 468 kts | 41° |
| 2026-05-03 22:12 | 50.79392 | 13.35168 | 34979 ft | 468 kts | 41° |
| 2026-05-03 22:13 | 50.84236 | 13.41968 | 34981 ft | 469 kts | 41° |
| 2026-05-03 22:13 | 50.89110 | 13.48830 | 34961 ft | 468 kts | 41° |
| 2026-05-03 22:14 | 50.93977 | 13.55701 | 34951 ft | 468 kts | 41° |
| 2026-05-03 22:14 | 50.98841 | 13.62589 | 34948 ft | 468 kts | 41° |
| 2026-05-03 22:15 | 51.03667 | 13.69443 | 34939 ft | 468 kts | 41° |
| 2026-05-03 22:15 | 51.08515 | 13.76347 | 34937 ft | 468 kts | 41° |
| 2026-05-03 22:16 | 51.13368 | 13.83280 | 34936 ft | 468 kts | 41° |
| 2026-05-03 22:16 | 51.18219 | 13.90230 | 34938 ft | 468 kts | 41° |
| 2026-05-03 22:17 | 51.23036 | 13.97152 | 34945 ft | 468 kts | 41° |
| 2026-05-03 22:17 | 51.27883 | 14.04138 | 34950 ft | 468 kts | 41° |
| 2026-05-03 22:18 | 51.32686 | 14.11080 | 34960 ft | 468 kts | 41° |
| 2026-05-03 22:18 | 51.37515 | 14.18081 | 34955 ft | 468 kts | 41° |
| 2026-05-03 22:19 | 51.42342 | 14.25100 | 34956 ft | 468 kts | 41° |
| 2026-05-03 22:19 | 51.47166 | 14.32134 | 34950 ft | 468 kts | 41° |
| 2026-05-03 22:20 | 51.51955 | 14.39139 | 34945 ft | 468 kts | 41° |
| 2026-05-03 22:20 | 51.56768 | 14.46201 | 34945 ft | 468 kts | 41° |
| 2026-05-03 22:21 | 51.61580 | 14.53283 | 34941 ft | 468 kts | 41° |
| 2026-05-03 22:21 | 51.66365 | 14.60345 | 34935 ft | 469 kts | 42° |
| 2026-05-03 22:22 | 51.71082 | 14.67609 | 34901 ft | 465 kts | 47° |
| 2026-05-03 22:22 | 51.73143 | 14.71600 | 34599 ft | 462 kts | 53° |
| 2026-05-03 22:22 | 51.75007 | 14.75839 | 33972 ft | 462 kts | 55° |
| 2026-05-03 22:22 | 51.76845 | 14.80038 | 33169 ft | 464 kts | 54° |
| 2026-05-03 22:23 | 51.78721 | 14.84304 | 32318 ft | 467 kts | 54° |
| 2026-05-03 22:23 | 51.80608 | 14.88598 | 31478 ft | 469 kts | 54° |
| 2026-05-03 22:23 | 51.82491 | 14.92898 | 31092 ft | 469 kts | 54° |
| 2026-05-03 22:23 | 51.84402 | 14.97272 | 30963 ft | 478 kts | 54° |
| 2026-05-03 22:24 | 51.86329 | 15.01693 | 30935 ft | 479 kts | 54° |
| 2026-05-03 22:24 | 51.90135 | 15.10456 | 30933 ft | 478 kts | 54° |
| 2026-05-03 22:25 | 51.93959 | 15.19289 | 30933 ft | 478 kts | 54° |
| 2026-05-03 22:25 | 51.97774 | 15.28133 | 30935 ft | 478 kts | 54° |
| 2026-05-03 22:26 | 52.01585 | 15.36999 | 30942 ft | 477 kts | 54° |
| 2026-05-03 22:26 | 52.05353 | 15.45794 | 30933 ft | 476 kts | 54° |
| 2026-05-03 22:27 | 52.09121 | 15.54618 | 30925 ft | 475 kts | 54° |
| 2026-05-03 22:27 | 52.12885 | 15.63465 | 30921 ft | 474 kts | 55° |
| 2026-05-03 22:28 | 52.16605 | 15.72239 | 30913 ft | 473 kts | 55° |
| 2026-05-03 22:28 | 52.20352 | 15.81106 | 30936 ft | 475 kts | 55° |
| 2026-05-03 22:29 | 52.24101 | 15.89988 | 30936 ft | 477 kts | 54° |
| 2026-05-03 22:29 | 52.28124 | 15.98631 | 30927 ft | 477 kts | 51° |
| 2026-05-03 22:30 | 52.32182 | 16.07149 | 30929 ft | 474 kts | 51° |
| 2026-05-03 22:30 | 52.36206 | 16.15733 | 30931 ft | 475 kts | 52° |
| 2026-05-03 22:31 | 52.40213 | 16.24362 | 30930 ft | 475 kts | 52° |
| 2026-05-03 22:31 | 52.44181 | 16.32943 | 30934 ft | 475 kts | 52° |
| 2026-05-03 22:32 | 52.48164 | 16.41584 | 30933 ft | 475 kts | 52° |
| 2026-05-03 22:32 | 52.52150 | 16.50259 | 30933 ft | 475 kts | 52° |
| 2026-05-03 22:33 | 52.56100 | 16.58885 | 30934 ft | 475 kts | 52° |
| 2026-05-03 22:33 | 52.60073 | 16.67592 | 30936 ft | 475 kts | 52° |
| 2026-05-03 22:34 | 52.64036 | 16.76306 | 30943 ft | 474 kts | 52° |
| 2026-05-03 22:34 | 52.67964 | 16.84971 | 30945 ft | 473 kts | 52° |
| 2026-05-03 22:35 | 52.71888 | 16.93658 | 30942 ft | 473 kts | 52° |
| 2026-05-03 22:35 | 52.75830 | 17.02415 | 30937 ft | 472 kts | 52° |
| 2026-05-03 22:36 | 52.79721 | 17.11089 | 30930 ft | 472 kts | 52° |
| 2026-05-03 22:36 | 52.83632 | 17.19836 | 30928 ft | 472 kts | 52° |
| 2026-05-03 22:37 | 52.87534 | 17.28595 | 30926 ft | 472 kts | 53° |
| 2026-05-03 22:37 | 52.91413 | 17.37331 | 30917 ft | 472 kts | 53° |
| 2026-05-03 22:38 | 52.95303 | 17.46122 | 30919 ft | 472 kts | 53° |
| 2026-05-03 22:38 | 52.99157 | 17.54863 | 30930 ft | 472 kts | 53° |
| 2026-05-03 22:39 | 53.03041 | 17.63703 | 30931 ft | 472 kts | 53° |
| 2026-05-03 22:39 | 53.06906 | 17.72530 | 30927 ft | 472 kts | 53° |
| 2026-05-03 22:40 | 53.10743 | 17.81321 | 30910 ft | 472 kts | 53° |
| 2026-05-03 22:40 | 53.14599 | 17.90190 | 30919 ft | 472 kts | 53° |
| 2026-05-03 22:41 | 53.18452 | 17.99081 | 30907 ft | 472 kts | 53° |
| 2026-05-03 22:41 | 53.22272 | 18.07927 | 30908 ft | 472 kts | 53° |
| 2026-05-03 22:42 | 53.26118 | 18.16866 | 30915 ft | 473 kts | 53° |
| 2026-05-03 22:42 | 53.29930 | 18.25756 | 30919 ft | 472 kts | 53° |
| 2026-05-03 22:43 | 53.33733 | 18.34658 | 30934 ft | 469 kts | 53° |
| 2026-05-03 22:43 | 53.37524 | 18.43560 | 30927 ft | 471 kts | 53° |
| 2026-05-03 22:44 | 53.41327 | 18.52525 | 30932 ft | 471 kts | 53° |
| 2026-05-03 22:44 | 53.45102 | 18.61454 | 30930 ft | 471 kts | 53° |
| 2026-05-03 22:45 | 53.48891 | 18.70444 | 30929 ft | 471 kts | 53° |
| 2026-05-03 22:45 | 53.52274 | 18.79885 | 30942 ft | 472 kts | 64° |
| 2026-05-03 22:46 | 53.54552 | 18.90181 | 30919 ft | 473 kts | 70° |
| 2026-05-03 22:46 | 53.56701 | 19.00665 | 30939 ft | 473 kts | 70° |
| 2026-05-03 22:47 | 53.58837 | 19.11149 | 30941 ft | 473 kts | 70° |
| 2026-05-03 22:47 | 53.60954 | 19.21649 | 30939 ft | 473 kts | 71° |
| 2026-05-03 22:48 | 53.63048 | 19.32103 | 30938 ft | 473 kts | 71° |
| 2026-05-03 22:48 | 53.65144 | 19.42628 | 30933 ft | 472 kts | 71° |
| 2026-05-03 22:49 | 53.67216 | 19.53081 | 30932 ft | 472 kts | 71° |
| 2026-05-03 22:49 | 53.69293 | 19.63621 | 30945 ft | 472 kts | 71° |
| 2026-05-03 22:50 | 53.71342 | 19.74074 | 30951 ft | 471 kts | 71° |
| 2026-05-03 22:50 | 53.73390 | 19.84586 | 30944 ft | 470 kts | 71° |
| 2026-05-03 22:51 | 53.75426 | 19.95111 | 30942 ft | 470 kts | 71° |
| 2026-05-03 22:51 | 53.77438 | 20.05565 | 30941 ft | 469 kts | 71° |
| 2026-05-03 22:52 | 53.79448 | 20.16069 | 30933 ft | 469 kts | 71° |
| 2026-05-03 22:52 | 53.81452 | 20.26594 | 30927 ft | 469 kts | 71° |
| 2026-05-03 22:53 | 53.83434 | 20.37065 | 30949 ft | 467 kts | 71° |
| 2026-05-03 22:53 | 53.85399 | 20.47501 | 30944 ft | 467 kts | 71° |
| 2026-05-03 22:54 | 53.87365 | 20.57995 | 30944 ft | 466 kts | 72° |
| 2026-05-03 22:54 | 53.88992 | 20.66714 | 30934 ft | 466 kts | 72° |
| 2026-05-03 22:55 | 53.91256 | 20.78910 | 30936 ft | 465 kts | 72° |
| 2026-05-03 22:55 | 53.92863 | 20.87622 | 30933 ft | 465 kts | 72° |
| 2026-05-03 22:56 | 53.94788 | 20.98113 | 30920 ft | 465 kts | 72° |
| 2026-05-03 22:56 | 53.96708 | 21.08632 | 30924 ft | 466 kts | 72° |
| 2026-05-03 22:57 | 53.98608 | 21.19102 | 30928 ft | 466 kts | 72° |
| 2026-05-03 22:57 | 54.00515 | 21.29669 | 30929 ft | 467 kts | 72° |
| 2026-05-03 22:58 | 54.02416 | 21.40237 | 30933 ft | 467 kts | 72° |
| 2026-05-03 22:58 | 54.04297 | 21.50755 | 30937 ft | 468 kts | 72° |
| 2026-05-03 22:59 | 54.06185 | 21.61378 | 30942 ft | 466 kts | 72° |
| 2026-05-03 22:59 | 54.08041 | 21.71883 | 30941 ft | 465 kts | 72° |
| 2026-05-03 23:00 | 54.09899 | 21.82461 | 30941 ft | 466 kts | 72° |
| 2026-05-03 23:00 | 54.11748 | 21.93047 | 30949 ft | 466 kts | 72° |
| 2026-05-03 23:01 | 54.13591 | 22.03664 | 30949 ft | 466 kts | 73° |
| 2026-05-03 23:01 | 54.15411 | 22.14203 | 30951 ft | 466 kts | 73° |
| 2026-05-03 23:02 | 54.17235 | 22.24839 | 30951 ft | 465 kts | 73° |
| 2026-05-03 23:02 | 54.19021 | 22.35345 | 30952 ft | 461 kts | 73° |
| 2026-05-03 23:03 | 54.20811 | 22.45923 | 30955 ft | 465 kts | 73° |
| 2026-05-03 23:03 | 54.21703 | 22.51220 | 30842 ft | 462 kts | 73° |
| 2026-05-03 23:03 | 54.22591 | 22.56507 | 30384 ft | 460 kts | 73° |
| 2026-05-03 23:03 | 54.23458 | 22.61687 | 29778 ft | 457 kts | 73° |
| 2026-05-03 23:04 | 54.24328 | 22.66900 | 29101 ft | 454 kts | 73° |
| 2026-05-03 23:04 | 54.25188 | 22.72070 | 28421 ft | 450 kts | 73° |
| 2026-05-03 23:04 | 54.26039 | 22.77199 | 27761 ft | 446 kts | 73° |
| 2026-05-03 23:04 | 54.26882 | 22.82295 | 27104 ft | 443 kts | 73° |
| 2026-05-03 23:05 | 54.27718 | 22.87365 | 26481 ft | 440 kts | 73° |
| 2026-05-03 23:05 | 54.28534 | 22.92323 | 25869 ft | 437 kts | 73° |
| 2026-05-03 23:05 | 54.29352 | 22.97313 | 25332 ft | 432 kts | 73° |
| 2026-05-03 23:05 | 54.30159 | 23.02248 | 24714 ft | 429 kts | 74° |
| 2026-05-03 23:06 | 54.30961 | 23.07167 | 24117 ft | 427 kts | 74° |
| 2026-05-03 23:06 | 54.31739 | 23.12067 | 23538 ft | 425 kts | 75° |
| 2026-05-03 23:06 | 54.32500 | 23.16946 | 22877 ft | 422 kts | 75° |
| 2026-05-03 23:06 | 54.33244 | 23.21743 | 22234 ft | 419 kts | 75° |
| 2026-05-03 23:07 | 54.33990 | 23.26559 | 21614 ft | 417 kts | 75° |
| 2026-05-03 23:07 | 54.34732 | 23.31348 | 20987 ft | 414 kts | 75° |
| 2026-05-03 23:07 | 54.35470 | 23.36121 | 20363 ft | 412 kts | 74° |
| 2026-05-03 23:07 | 54.36202 | 23.40861 | 19765 ft | 410 kts | 74° |
| 2026-05-03 23:08 | 54.36929 | 23.45584 | 19186 ft | 408 kts | 74° |
| 2026-05-03 23:08 | 54.37652 | 23.50291 | 18610 ft | 406 kts | 74° |
| 2026-05-03 23:08 | 54.38367 | 23.54966 | 18018 ft | 404 kts | 74° |
| 2026-05-03 23:08 | 54.39070 | 23.59564 | 17441 ft | 401 kts | 74° |
| 2026-05-03 23:09 | 54.39772 | 23.64172 | 16913 ft | 396 kts | 75° |
| 2026-05-03 23:09 | 54.40466 | 23.68743 | 16348 ft | 394 kts | 75° |
| 2026-05-03 23:09 | 54.41151 | 23.73267 | 15795 ft | 391 kts | 75° |
| 2026-05-03 23:09 | 54.41835 | 23.77796 | 15264 ft | 388 kts | 75° |
| 2026-05-03 23:10 | 54.42507 | 23.82264 | 14723 ft | 385 kts | 75° |
| 2026-05-03 23:10 | 54.43167 | 23.86655 | 14215 ft | 383 kts | 75° |
| 2026-05-03 23:10 | 54.43830 | 23.91086 | 13701 ft | 380 kts | 75° |
| 2026-05-03 23:10 | 54.44485 | 23.95477 | 13196 ft | 377 kts | 75° |
| 2026-05-03 23:11 | 54.45125 | 23.99779 | 12973 ft | 364 kts | 75° |
| 2026-05-03 23:11 | 54.45748 | 24.03981 | 12562 ft | 359 kts | 75° |
| 2026-05-03 23:11 | 54.46353 | 24.08064 | 12112 ft | 355 kts | 75° |
| 2026-05-03 23:11 | 54.46965 | 24.12211 | 11656 ft | 351 kts | 75° |
| 2026-05-03 23:12 | 54.47556 | 24.16225 | 11232 ft | 348 kts | 75° |
| 2026-05-03 23:12 | 54.48228 | 24.20194 | 10797 ft | 343 kts | 68° |
| 2026-05-03 23:12 | 54.49283 | 24.23841 | 10359 ft | 338 kts | 56° |
| 2026-05-03 23:12 | 54.50660 | 24.27083 | 9938 ft | 333 kts | 50° |
| 2026-05-03 23:13 | 54.52072 | 24.30229 | 9535 ft | 328 kts | 51° |
| 2026-05-03 23:13 | 54.53419 | 24.33258 | 9362 ft | 315 kts | 51° |
| 2026-05-03 23:13 | 54.54721 | 24.36201 | 8956 ft | 304 kts | 51° |
| 2026-05-03 23:13 | 54.56001 | 24.39094 | 8591 ft | 299 kts | 50° |
| 2026-05-03 23:14 | 54.57251 | 24.41921 | 8450 ft | 296 kts | 50° |
| 2026-05-03 23:14 | 54.58492 | 24.44729 | 8326 ft | 298 kts | 51° |
| 2026-05-03 23:14 | 54.59746 | 24.47567 | 8199 ft | 296 kts | 50° |
| 2026-05-03 23:14 | 54.60997 | 24.50406 | 8081 ft | 294 kts | 50° |
| 2026-05-03 23:15 | 54.62232 | 24.53211 | 7947 ft | 293 kts | 50° |
| 2026-05-03 23:15 | 54.63458 | 24.56000 | 7733 ft | 291 kts | 50° |
| 2026-05-03 23:15 | 54.64675 | 24.58769 | 7603 ft | 293 kts | 50° |
| 2026-05-03 23:15 | 54.65908 | 24.61577 | 7480 ft | 293 kts | 50° |
| 2026-05-03 23:16 | 54.67133 | 24.64372 | 7350 ft | 292 kts | 51° |
| 2026-05-03 23:16 | 54.68360 | 24.67174 | 7236 ft | 291 kts | 51° |
| 2026-05-03 23:16 | 54.69568 | 24.69937 | 7115 ft | 291 kts | 51° |
| 2026-05-03 23:16 | 54.70788 | 24.72731 | 6998 ft | 291 kts | 51° |
| 2026-05-03 23:17 | 54.72009 | 24.75529 | 6879 ft | 290 kts | 51° |
| 2026-05-03 23:17 | 54.73223 | 24.78315 | 6747 ft | 290 kts | 51° |
| 2026-05-03 23:17 | 54.74425 | 24.81076 | 6635 ft | 290 kts | 51° |
| 2026-05-03 23:17 | 54.75652 | 24.83898 | 6506 ft | 289 kts | 51° |
| 2026-05-03 23:18 | 54.76841 | 24.86637 | 6227 ft | 288 kts | 51° |
| 2026-05-03 23:18 | 54.78046 | 24.89413 | 5838 ft | 287 kts | 51° |
| 2026-05-03 23:18 | 54.79246 | 24.92180 | 5434 ft | 287 kts | 51° |
| 2026-05-03 23:18 | 54.80446 | 24.94951 | 5094 ft | 285 kts | 51° |
| 2026-05-03 23:19 | 54.81642 | 24.97717 | 4999 ft | 289 kts | 51° |
| 2026-05-03 23:19 | 54.82831 | 25.00469 | 4989 ft | 287 kts | 51° |
| 2026-05-03 23:19 | 54.84029 | 25.03247 | 4988 ft | 287 kts | 51° |
| 2026-05-03 23:19 | 54.85233 | 25.06041 | 4979 ft | 288 kts | 51° |
| 2026-05-03 23:20 | 54.86298 | 25.08984 | 4981 ft | 289 kts | 69° |
| 2026-05-03 23:20 | 54.86600 | 25.12387 | 4981 ft | 280 kts | 96° |
| 2026-05-03 23:20 | 54.86257 | 25.15569 | 4980 ft | 264 kts | 106° |
| 2026-05-03 23:20 | 54.85783 | 25.18552 | 4978 ft | 248 kts | 108° |
| 2026-05-03 23:21 | 54.85312 | 25.21390 | 4984 ft | 246 kts | 108° |
| 2026-05-03 23:21 | 54.84854 | 25.24267 | 4968 ft | 244 kts | 108° |
| 2026-05-03 23:21 | 54.84251 | 25.27028 | 5047 ft | 247 kts | 115° |
| 2026-05-03 23:21 | 54.83607 | 25.29735 | 5012 ft | 242 kts | 114° |
| 2026-05-03 23:22 | 54.82359 | 25.35123 | 4223 ft | 237 kts | 114° |
| 2026-05-03 23:22 | 54.81609 | 25.37593 | 3901 ft | 223 kts | 138° |
| 2026-05-03 23:22 | 54.80379 | 25.38888 | 3785 ft | 200 kts | 170° |
| 2026-05-03 23:23 | 54.78999 | 25.39021 | 3601 ft | 197 kts | 192° |
| 2026-05-03 23:23 | 54.77712 | 25.38477 | 3393 ft | 185 kts | 203° |
| 2026-05-03 23:23 | 54.76565 | 25.37738 | 3174 ft | 173 kts | 207° |
| 2026-05-03 23:23 | 54.75480 | 25.36971 | 2946 ft | 163 kts | 206° |
| 2026-05-03 23:24 | 54.74457 | 25.36260 | 2752 ft | 152 kts | 207° |
| 2026-05-03 23:24 | 54.73519 | 25.35607 | 2570 ft | 138 kts | 207° |
| 2026-05-03 23:24 | 54.72667 | 25.35013 | 2396 ft | 130 kts | 207° |
| 2026-05-03 23:24 | 54.71827 | 25.34423 | 2226 ft | 131 kts | 207° |
| 2026-05-03 23:25 | 54.70987 | 25.33839 | 2050 ft | 129 kts | 207° |
| 2026-05-03 23:25 | 54.70154 | 25.33260 | 1880 ft | 128 kts | 207° |
| 2026-05-03 23:25 | 54.69326 | 25.32684 | 1711 ft | 128 kts | 208° |
| 2026-05-03 23:25 | 54.68493 | 25.32103 | 1531 ft | 128 kts | 206° |
| 2026-05-03 23:26 | 54.67659 | 25.31522 | 1362 ft | 130 kts | 206° |
| 2026-05-03 23:26 | 54.66834 | 25.30925 | 1178 ft | 131 kts | 204° |
| 2026-05-03 23:26 | 54.65996 | 25.30349 | 1009 ft | 127 kts | 201° |
| 2026-05-03 23:26 | 54.65171 | 25.29785 | 848 ft | 127 kts | 201° |
| 2026-05-03 23:27 | 54.64348 | 25.29216 | 685 ft | 127 kts | 201° |
| 2026-05-03 23:27 | 54.63564 | 25.28678 | 628 ft | 103 kts | 201° |
| 2026-05-03 23:27 | 54.63055 | 25.28329 | 621 ft | 49 kts | 201° |
| 2026-05-03 23:27 | 54.62972 | 25.28130 | 610 ft | 19 kts | 292° |
| 2026-05-03 23:28 | 54.62989 | 25.28049 | 617 ft | 0 kts | 291° |
| 2026-05-03 23:28 | 54.62989 | 25.28048 | 617 ft | 1 kts | 291° |
| 2026-05-03 23:29 | 54.62997 | 25.28016 | 613 ft | 5 kts | 296° |
| 2026-05-03 23:29 | 54.63030 | 25.28000 | 613 ft | 6 kts | 15° |
| 2026-05-03 23:29 | 54.63075 | 25.28028 | 612 ft | 8 kts | 21° |
| 2026-05-03 23:29 | 54.63132 | 25.28067 | 621 ft | 10 kts | 22° |
| 2026-05-03 23:30 | 54.63200 | 25.28115 | 618 ft | 11 kts | 22° |
| 2026-05-03 23:30 | 54.63278 | 25.28169 | 630 ft | 13 kts | 22° |
| 2026-05-03 23:30 | 54.63365 | 25.28229 | 619 ft | 14 kts | 21° |
| 2026-05-03 23:30 | 54.63458 | 25.28293 | 625 ft | 15 kts | 21° |
| 2026-05-03 23:31 | 54.63542 | 25.28350 | 624 ft | 8 kts | 20° |
| 2026-05-03 23:31 | 54.63599 | 25.28363 | 635 ft | 9 kts | 356° |
| 2026-05-03 23:31 | 54.63667 | 25.28338 | 632 ft | 11 kts | 347° |
| 2026-05-03 23:31 | 54.63748 | 25.28306 | 635 ft | 13 kts | 347° |
| 2026-05-03 23:32 | 54.63842 | 25.28269 | 630 ft | 15 kts | 347° |
| 2026-05-03 23:32 | 54.63944 | 25.28228 | 632 ft | 16 kts | 347° |
| 2026-05-03 23:32 | 54.64059 | 25.28184 | 636 ft | 17 kts | 347° |
| 2026-05-03 23:32 | 54.64146 | 25.28150 | 639 ft | 8 kts | 347° |
| 2026-05-03 23:33 | 54.64159 | 25.28144 | 640 ft | 2 kts | 343° |
| 2026-05-03 23:33 | 54.64182 | 25.28130 | 637 ft | 5 kts | 341° |
| 2026-05-03 23:33 | 54.64221 | 25.28117 | 639 ft | 6 kts | 8° |
| 2026-05-03 23:33 | 54.64228 | 25.28120 | 638 ft | 0 kts | 10° |
| 2026-05-03 23:34 | 54.64240 | 25.28122 | 638 ft | 0 kts | 7° |